Time;durP1;ratioP1;P1;durP2;ratioP2;P2;SDS_P1;SDS_P2;PMS_P1;PMS_P2;Temp;Humidity;BMP_temperature;BMP_pressure;BME280_temperature;BME280_humidity;BME280_pressure;Samples;Min_cycle;Max_cycle;Signal;HPM_P1;HPM_P2
2022/07/13 00:02:09;;;;;;;1.77;1.00;;;14.80;99.90;;;;;;5052552;28;20521;-63
2022/07/13 00:04:35;;;;;;;1.23;1.10;;;14.70;99.90;;;;;;5052141;28;20048;-63
2022/07/13 00:07:02;;;;;;;2.65;1.17;;;14.70;99.90;;;;;;5052442;28;20045;-63
2022/07/13 00:09:29;;;;;;;2.40;1.15;;;14.70;99.90;;;;;;5051935;28;20056;-63
2022/07/13 00:11:56;;;;;;;2.42;1.23;;;14.70;99.90;;;;;;5051666;28;20037;-63
2022/07/13 00:14:22;;;;;;;1.30;1.15;;;14.60;99.90;;;;;;5052057;28;20041;-64
2022/07/13 00:16:49;;;;;;;2.17;1.00;;;14.60;99.90;;;;;;5052389;28;20040;-63
2022/07/13 00:19:16;;;;;;;1.88;1.10;;;14.60;99.90;;;;;;5052437;28;20068;-64
2022/07/13 00:21:43;;;;;;;3.63;1.40;;;14.50;99.90;;;;;;5052089;28;20049;-64
2022/07/13 00:24:09;;;;;;;2.05;1.42;;;14.50;99.90;;;;;;5051755;28;20055;-64
2022/07/13 00:26:36;;;;;;;2.83;1.40;;;14.40;99.90;;;;;;5052112;28;20056;-63
2022/07/13 00:29:03;;;;;;;3.03;1.33;;;14.40;99.90;;;;;;5052170;28;20037;-63
2022/07/13 00:31:30;;;;;;;1.88;1.00;;;14.40;99.90;;;;;;5033515;28;20098;-63
2022/07/13 00:33:57;;;;;;;1.63;1.15;;;14.40;99.90;;;;;;5051951;28;20044;-64
2022/07/13 00:36:24;;;;;;;2.15;0.90;;;14.40;99.90;;;;;;5052191;28;20119;-64
2022/07/13 00:38:51;;;;;;;3.10;1.50;;;14.40;99.90;;;;;;5051519;28;20043;-63
2022/07/13 00:41:17;;;;;;;1.73;1.38;;;14.40;99.90;;;;;;5051429;28;20052;-63
2022/07/13 00:43:44;;;;;;;1.38;1.10;;;14.40;99.90;;;;;;5052072;28;20045;-63
2022/07/13 00:46:13;;;;;;;2.42;1.48;;;14.30;99.90;;;;;;5033980;28;20041;-63
2022/07/13 00:48:41;;;;;;;5.28;1.30;;;14.20;99.90;;;;;;5030430;28;20061;-64
2022/07/13 00:51:08;;;;;;;1.85;1.30;;;14.20;99.90;;;;;;5033353;28;20041;-64
2022/07/13 00:53:39;;;;;;;3.22;1.20;;;14.10;99.90;;;;;;5034098;28;20045;-64
2022/07/13 00:56:06;;;;;;;1.58;1.25;;;14.00;99.90;;;;;;5051674;28;20041;-63
2022/07/13 00:58:33;;;;;;;1.60;1.40;;;13.90;99.90;;;;;;5051154;28;20079;-64
2022/07/13 01:00:59;;;;;;;2.00;1.17;;;13.90;99.90;;;;;;5033235;28;20048;-64
2022/07/13 01:03:27;;;;;;;2.30;1.38;;;13.90;99.90;;;;;;5051698;28;20124;-64
2022/07/13 01:05:54;;;;;;;1.98;1.63;;;13.90;99.90;;;;;;5051235;28;20087;-64
2022/07/13 01:08:22;;;;;;;1.70;1.50;;;13.90;99.90;;;;;;5051286;28;20041;-64
2022/07/13 01:10:50;;;;;;;4.40;1.63;;;13.80;99.90;;;;;;5033051;28;20045;-64
2022/07/13 01:13:18;;;;;;;1.67;1.40;;;13.70;99.90;;;;;;5051291;28;20041;-64
2022/07/13 01:15:45;;;;;;;1.52;1.38;;;13.70;99.90;;;;;;5051031;28;20040;-63
2022/07/13 01:18:13;;;;;;;1.67;1.15;;;13.70;99.90;;;;;;5051348;28;20033;-63
2022/07/13 01:20:42;;;;;;;2.58;1.42;;;13.70;99.90;;;;;;5032701;28;20234;-63
2022/07/13 01:23:14;;;;;;;3.33;1.50;;;13.70;99.90;;;;;;5051259;28;20040;-63
2022/07/13 01:25:41;;;;;;;1.90;1.42;;;13.70;99.90;;;;;;5050498;28;20422;-63
2022/07/13 01:28:08;;;;;;;2.33;1.40;;;13.70;99.90;;;;;;5033410;28;20552;-64
2022/07/13 01:30:35;;;;;;;;;;;13.70;99.90;;;;;;5051263;28;20048;-64
2022/07/13 01:33:02;;;;;;;2.67;1.50;;;13.70;99.90;;;;;;5050801;28;19928;-64
2022/07/13 01:35:30;;;;;;;2.03;1.35;;;13.70;99.90;;;;;;5033367;28;20065;-63
2022/07/13 01:37:57;;;;;;;1.60;1.23;;;13.70;99.90;;;;;;5033342;28;20048;-63
2022/07/13 01:40:24;;;;;;;2.25;1.45;;;13.70;99.90;;;;;;5050923;28;20045;-63
2022/07/13 01:42:52;;;;;;;2.65;1.30;;;13.70;99.90;;;;;;5030971;28;20068;-64
2022/07/13 01:45:22;;;;;;;2.03;1.27;;;13.60;99.90;;;;;;5025037;28;20056;-63
2022/07/13 01:47:55;;;;;;;1.85;1.65;;;13.60;99.90;;;;;;5033429;28;20053;-64
2022/07/13 01:50:25;;;;;;;4.65;1.92;;;13.60;99.90;;;;;;5032445;28;20120;-63
2022/07/13 01:52:52;;;;;;;1.75;1.40;;;13.50;99.90;;;;;;5033161;28;20041;-64
2022/07/13 01:55:20;;;;;;;2.25;1.27;;;13.50;99.90;;;;;;5051172;28;20041;-64
2022/07/13 01:57:47;;;;;;;2.53;1.98;;;13.30;99.90;;;;;;5051350;28;20051;-63
2022/07/13 02:00:20;;;;;;;3.80;1.70;;;13.30;99.90;;;;;;5032240;28;20131;-64
2022/07/13 02:02:48;;;;;;;4.32;1.65;;;13.20;99.90;;;;;;5033169;28;20567;-64
2022/07/13 02:05:19;;;;;;;2.03;1.75;;;13.20;99.90;;;;;;5033149;28;20049;-63
2022/07/13 02:07:46;;;;;;;5.78;1.88;;;13.10;99.90;;;;;;5033503;28;20059;-63
2022/07/13 02:10:13;;;;;;;2.22;1.67;;;13.10;99.90;;;;;;5032100;28;20045;-64
2022/07/13 02:12:41;;;;;;;1.92;1.55;;;13.00;99.90;;;;;;5033173;28;20049;-63
2022/07/13 02:15:09;;;;;;;3.00;1.63;;;13.00;99.90;;;;;;5033049;28;20076;-64
2022/07/13 02:17:38;;;;;;;4.93;1.70;;;13.00;99.90;;;;;;5051206;28;20037;-63
2022/07/13 02:20:06;;;;;;;5.57;1.67;;;12.90;99.90;;;;;;5031987;28;20060;-63
2022/07/13 02:22:44;;;;;;;2.28;1.80;;;12.90;99.90;;;;;;5033058;28;20060;-63
2022/07/13 02:25:14;;;;;;;2.22;1.55;;;12.90;99.90;;;;;;5033044;28;20045;-64
2022/07/13 02:27:42;;;;;;;2.72;2.00;;;12.90;99.90;;;;;;5050332;28;20037;-64
2022/07/13 02:30:11;;;;;;;2.30;1.50;;;12.90;99.90;;;;;;5032432;28;20052;-63
2022/07/13 02:32:38;;;;;;;1.38;1.27;;;12.90;99.90;;;;;;5032918;28;20080;-63
2022/07/13 02:35:06;;;;;;;1.85;1.23;;;12.90;99.90;;;;;;5036801;28;20131;-63
2022/07/13 02:37:35;;;;;;;2.58;1.83;;;12.90;99.90;;;;;;5036278;28;20041;-63
2022/07/13 02:40:03;;;;;;;2.55;1.50;;;12.90;99.90;;;;;;5036154;28;20052;-64
2022/07/13 02:42:29;;;;;;;2.03;1.45;;;12.90;99.90;;;;;;5036543;28;20383;-63
2022/07/13 02:44:56;;;;;;;1.98;1.77;;;12.80;99.90;;;;;;5053965;28;20659;-64
2022/07/13 02:47:24;;;;;;;7.32;2.30;;;12.70;99.90;;;;;;5036581;28;20135;-64
2022/07/13 02:49:51;;;;;;;3.53;2.53;;;12.60;99.90;;;;;;5036237;28;20052;-63
2022/07/13 02:52:18;;;;;;;2.88;2.33;;;12.70;99.90;;;;;;5036467;28;20114;-63
2022/07/13 02:54:46;;;;;;;3.85;2.13;;;12.70;99.90;;;;;;5035846;28;20527;-64
2022/07/13 02:57:13;;;;;;;6.70;2.38;;;12.60;99.90;;;;;;5036139;28;20057;-63
2022/07/13 02:59:40;;;;;;;2.28;1.85;;;12.60;99.90;;;;;;5054163;28;20049;-63
2022/07/13 03:02:07;;;;;;;2.38;1.83;;;12.60;99.90;;;;;;5035949;28;20065;-63
2022/07/13 03:04:35;;;;;;;2.85;1.65;;;12.60;99.90;;;;;;5035862;28;20071;-63
2022/07/13 03:07:02;;;;;;;1.63;1.40;;;12.50;99.90;;;;;;5036229;28;20057;-63
2022/07/13 03:09:31;;;;;;;4.53;1.88;;;12.50;99.90;;;;;;5053890;28;20052;-63
2022/07/13 03:11:58;;;;;;;3.25;1.55;;;12.50;99.90;;;;;;5035120;28;20128;-64
2022/07/13 03:14:25;;;;;;;2.63;1.67;;;12.50;99.90;;;;;;5036098;28;20536;-63
2022/07/13 03:16:52;;;;;;;1.73;1.58;;;12.50;99.90;;;;;;5036078;28;20053;-63
2022/07/13 03:19:19;;;;;;;2.97;1.40;;;12.50;99.90;;;;;;5035992;28;20049;-63
2022/07/13 03:21:46;;;;;;;3.60;1.63;;;12.40;99.90;;;;;;5034928;28;20041;-63
2022/07/13 03:24:13;;;;;;;2.38;1.70;;;12.40;99.90;;;;;;5045221;23;20437;-58
2022/07/13 03:26:40;;;;;;;2.72;1.85;;;12.40;99.90;;;;;;5017591;28;20594;-58
2022/07/13 03:29:07;;;;;;;2.33;2.00;;;12.40;99.90;;;;;;5041213;28;20041;-58
2022/07/13 03:31:34;;;;;;;3.67;1.40;;;12.40;99.90;;;;;;5048200;28;20053;-58
2022/07/13 03:34:01;;;;;;;2.00;1.70;;;12.40;99.90;;;;;;5020514;28;20509;-58
2022/07/13 03:36:30;;;;;;;3.20;1.85;;;12.40;99.90;;;;;;5012508;28;20065;-58
2022/07/13 03:38:59;;;;;;;3.70;2.15;;;12.40;99.90;;;;;;5029024;28;20042;-58
2022/07/13 03:41:27;;;;;;;2.65;1.90;;;12.40;99.90;;;;;;5011594;28;20560;-58
2022/07/13 03:43:56;;;;;;;2.50;1.77;;;12.40;99.90;;;;;;5004826;28;20078;-58
2022/07/13 03:46:23;;;;;;;2.03;1.58;;;12.40;99.90;;;;;;5012396;28;20060;-58
2022/07/13 03:48:50;;;;;;;2.30;1.70;;;12.50;99.90;;;;;;5012454;28;20042;-58
2022/07/13 03:51:17;;;;;;;;;;;12.40;99.90;;;;;;5011845;28;20142;-58
2022/07/13 03:53:44;;;;;;;2.67;2.20;;;12.50;99.90;;;;;;5020420;28;20012;-58
2022/07/13 03:56:11;;;;;;;3.05;2.30;;;12.50;99.90;;;;;;5028602;28;20144;-58
2022/07/13 03:58:38;;;;;;;4.35;2.35;;;12.60;99.90;;;;;;5028500;28;20042;-58
2022/07/13 04:01:05;;;;;;;3.50;2.33;;;12.60;99.90;;;;;;5011050;28;20052;-58
2022/07/13 04:03:32;;;;;;;;;;;12.60;99.90;;;;;;5020760;28;20050;-58
2022/07/13 04:06:00;;;;;;;2.40;1.92;;;12.60;99.90;;;;;;5028487;28;19921;-59
2022/07/13 04:08:27;;;;;;;3.80;2.80;;;12.60;99.90;;;;;;5024543;28;20578;-58
2022/07/13 04:10:55;;;;;;;3.88;3.17;;;12.70;99.90;;;;;;5016254;28;20050;-58
2022/07/13 04:13:24;;;;;;;4.80;3.33;;;12.70;99.90;;;;;;4993573;28;20038;-59
2022/07/13 04:15:51;;;;;;;5.07;2.80;;;12.80;99.90;;;;;;5008608;28;20046;-58
2022/07/13 04:18:17;;;;;;;3.67;2.65;;;12.90;99.90;;;;;;5003496;28;20053;-59
2022/07/13 04:20:45;;;;;;;;;;;12.90;99.90;;;;;;5025935;28;20065;-59
2022/07/13 04:23:11;;;;;;;5.00;3.03;;;12.90;99.90;;;;;;5027965;28;20008;-58
2022/07/13 04:25:38;;;;;;;5.20;2.95;;;13.00;99.90;;;;;;5011473;28;20053;-59
2022/07/13 04:28:05;;;;;;;3.83;2.97;;;13.00;99.90;;;;;;5011073;28;20084;-58
2022/07/13 04:30:32;;;;;;;4.57;2.83;;;13.10;99.90;;;;;;5011103;28;20069;-59
2022/07/13 04:33:00;;;;;;;4.03;3.10;;;13.10;99.90;;;;;;5011577;28;20084;-59
2022/07/13 04:35:27;;;;;;;5.70;3.05;;;13.10;99.90;;;;;;5027433;28;20132;-59
2022/07/13 04:37:55;;;;;;;5.93;3.58;;;13.30;99.90;;;;;;5019448;28;20403;-59
2022/07/13 04:40:22;;;;;;;3.58;3.08;;;13.30;99.90;;;;;;5027632;28;20054;-59
2022/07/13 04:42:49;;;;;;;5.38;2.95;;;13.40;99.90;;;;;;5027825;28;20049;-59
2022/07/13 04:45:18;;;;;;;3.55;2.65;;;13.40;99.90;;;;;;5005670;28;20081;-59
2022/07/13 04:47:49;;;;;;;7.28;2.65;;;13.40;99.90;;;;;;5011291;28;20045;-59
2022/07/13 04:50:16;;;;;;;;;;;13.50;99.90;;;;;;5027598;28;20054;-59
2022/07/13 04:52:43;;;;;;;4.75;2.35;;;13.50;99.90;;;;;;5026858;28;20378;-59
2022/07/13 04:55:11;;;;;;;3.90;2.53;;;13.50;99.90;;;;;;5010726;28;20502;-59
2022/07/13 04:57:38;;;;;;;3.33;2.80;;;13.60;99.90;;;;;;5010584;28;20132;-59
2022/07/13 05:00:07;;;;;;;5.28;2.58;;;13.60;99.90;;;;;;5009744;28;20053;-59
2022/07/13 05:02:35;;;;;;;4.82;2.58;;;13.70;99.90;;;;;;5024397;28;20498;-59
2022/07/13 05:05:03;;;;;;;6.43;2.90;;;13.70;99.90;;;;;;5010344;28;20392;-59
2022/07/13 05:07:30;;;;;;;;;;;13.70;99.90;;;;;;5026816;28;20064;-59
2022/07/13 05:10:04;;;;;;;3.72;2.55;;;13.80;99.90;;;;;;5009207;28;19961;-59
2022/07/13 05:12:36;;;;;;;5.85;2.45;;;13.90;99.90;;;;;;5015395;28;20068;-59
2022/07/13 05:15:03;;;;;;;3.03;2.60;;;14.00;99.90;;;;;;5010626;28;20061;-59
2022/07/13 05:17:30;;;;;;;;;;;14.10;99.90;;;;;;4991572;28;20137;-59
2022/07/13 05:20:03;;;;;;;2.72;1.92;;;14.00;99.90;;;;;;5006350;28;20001;-59
2022/07/13 05:22:34;;;;;;;5.22;2.40;;;14.10;99.90;;;;;;5027250;28;20145;-59
2022/07/13 05:25:02;;;;;;;4.57;2.17;;;14.10;99.90;;;;;;5011520;28;20096;-59
2022/07/13 05:27:28;;;;;;;;;;;14.20;99.90;;;;;;5010460;28;20129;-59
2022/07/13 05:29:56;;;;;;;4.63;2.35;;;14.30;99.90;;;;;;5018202;28;19921;-59
2022/07/13 05:32:23;;;;;;;2.83;2.47;;;14.40;99.90;;;;;;5009987;28;20050;-59
2022/07/13 05:34:51;;;;;;;5.43;2.42;;;14.40;99.90;;;;;;5010280;28;20046;-59
2022/07/13 05:37:18;;;;;;;6.13;2.92;;;14.40;99.90;;;;;;5011322;28;20096;-59
2022/07/13 05:39:46;;;;;;;5.40;2.33;;;14.40;99.90;;;;;;5003593;28;20033;-59
2022/07/13 05:42:15;;;;;;;6.90;2.25;;;14.40;99.90;;;;;;5010209;28;20072;-59
2022/07/13 05:44:41;;;;;;;5.28;2.53;;;14.50;99.90;;;;;;5009475;28;20414;-59
2022/07/13 05:47:08;;;;;;;3.17;2.20;;;14.50;99.90;;;;;;5009699;28;20146;-59
2022/07/13 05:49:35;;;;;;;2.80;1.98;;;14.60;99.90;;;;;;5026466;28;20109;-59
2022/07/13 05:52:02;;;;;;;3.00;2.03;;;14.70;99.90;;;;;;5026123;28;20438;-59
2022/07/13 05:54:32;;;;;;;3.38;2.20;;;14.80;99.90;;;;;;5008822;28;20132;-59
2022/07/13 05:57:10;;;;;;;3.97;2.10;;;14.90;99.90;;;;;;5011021;28;20045;-59
2022/07/13 05:59:37;;;;;;;4.75;2.05;;;15.00;99.90;;;;;;5011059;28;20041;-59
2022/07/13 06:02:04;;;;;;;8.38;3.17;;;15.10;99.90;;;;;;5010201;28;20049;-60
2022/07/13 06:04:30;;;;;;;2.72;2.03;;;15.30;99.90;;;;;;5010943;28;20112;-59
2022/07/13 06:06:57;;;;;;;5.03;2.10;;;15.40;99.90;;;;;;5011486;28;20041;-59
2022/07/13 06:09:25;;;;;;;6.05;3.47;;;15.50;99.90;;;;;;5014752;28;20042;-58
2022/07/13 06:11:51;;;;;;;3.72;2.50;;;15.60;99.90;;;;;;5013899;28;20049;-58
2022/07/13 06:14:18;;;;;;;3.60;2.20;;;15.70;99.90;;;;;;5014425;28;20038;-58
2022/07/13 06:16:45;;;;;;;4.28;2.45;;;15.80;99.90;;;;;;5014876;28;20478;-58
2022/07/13 06:19:12;;;;;;;5.18;2.33;;;15.90;99.90;;;;;;5011986;28;20420;-57
2022/07/13 06:21:39;;;;;;;2.28;1.70;;;16.00;99.90;;;;;;5003086;28;20507;-60
2022/07/13 06:24:06;;;;;;;10.35;4.88;;;16.00;99.90;;;;;;4995434;28;20132;-59
2022/07/13 06:26:33;;;;;;;4.03;2.00;;;16.10;99.90;;;;;;5012186;28;20079;-60
2022/07/13 06:28:59;;;;;;;4.68;2.10;;;16.20;99.90;;;;;;5013656;28;20491;-59
2022/07/13 06:31:26;;;;;;;4.18;2.20;;;16.30;99.90;;;;;;5011072;28;20045;-59
2022/07/13 06:33:53;;;;;;;3.38;2.03;;;16.40;99.90;;;;;;5013647;28;20041;-59
2022/07/13 06:36:20;;;;;;;2.92;1.85;;;16.60;99.90;;;;;;5011123;28;20045;-59
2022/07/13 06:38:47;;;;;;;5.10;1.98;;;16.60;99.90;;;;;;5008885;28;20038;-59
2022/07/13 06:41:13;;;;;;;1.77;1.50;;;16.80;99.90;;;;;;5009303;28;20045;-59
2022/07/13 06:43:40;;;;;;;3.75;2.28;;;17.00;99.90;;;;;;5014332;28;20042;-59
2022/07/13 06:46:08;;;;;;;1.80;1.50;;;17.40;99.90;;;;;;5014685;28;20042;-59
2022/07/13 06:48:36;;;;;;;3.80;1.90;;;17.60;99.90;;;;;;5006267;28;20101;-59
2022/07/13 06:51:03;;;;;;;;;;;17.80;99.90;;;;;;5014565;28;20034;-59
2022/07/13 06:53:30;;;;;;;2.45;1.70;;;17.90;99.90;;;;;;5014593;28;19932;-59
2022/07/13 06:55:57;;;;;;;2.42;1.67;;;18.00;99.90;;;;;;5014817;28;20486;-59
2022/07/13 06:58:24;;;;;;;2.28;1.70;;;18.20;99.90;;;;;;5007837;28;20046;-59
2022/07/13 07:00:50;;;;;;;5.43;1.95;;;18.30;99.90;;;;;;5012253;28;20092;-59
2022/07/13 07:03:18;;;;;;;1.67;1.58;;;18.40;99.90;;;;;;5014509;28;20493;-59
2022/07/13 07:05:45;;;;;;;4.43;1.58;;;18.60;99.90;;;;;;5014006;28;20081;-59
2022/07/13 07:08:13;;;;;;;1.83;1.63;;;18.80;99.90;;;;;;5002890;28;20105;-59
2022/07/13 07:10:39;;;;;;;;;;;19.00;99.90;;;;;;5010976;28;20042;-59
2022/07/13 07:13:06;;;;;;;6.05;2.17;;;19.10;99.90;;;;;;5014281;28;19960;-59
2022/07/13 07:15:34;;;;;;;1.73;1.60;;;19.20;99.90;;;;;;5013730;28;20037;-59
2022/07/13 07:18:01;;;;;;;1.70;1.60;;;19.30;99.90;;;;;;5021075;28;20088;-59
2022/07/13 07:20:35;;;;;;;2.10;1.63;;;19.30;99.90;;;;;;5013322;28;20050;-59
2022/07/13 07:23:02;;;;;;;1.85;1.58;;;19.40;99.90;;;;;;5012771;28;20147;-59
2022/07/13 07:25:29;;;;;;;3.58;1.90;;;19.40;99.90;;;;;;5013642;28;20050;-59
2022/07/13 07:27:56;;;;;;;4.07;1.77;;;19.50;99.90;;;;;;5020999;28;20053;-59
2022/07/13 07:30:23;;;;;;;2.80;1.58;;;19.70;99.90;;;;;;5013522;28;20509;-59
2022/07/13 07:32:49;;;;;;;2.22;1.60;;;19.90;99.90;;;;;;5012981;28;20042;-59
2022/07/13 07:35:17;;;;;;;3.85;1.85;;;20.00;99.90;;;;;;5005767;28;20038;-59
2022/07/13 07:37:44;;;;;;;2.38;1.55;;;20.00;99.90;;;;;;5013905;28;20427;-59
2022/07/13 07:40:11;;;;;;;3.20;1.73;;;20.20;99.90;;;;;;5012973;28;20066;-60
2022/07/13 07:42:39;;;;;;;3.17;1.67;;;20.30;99.90;;;;;;5005467;28;20057;-60
2022/07/13 07:45:06;;;;;;;;;;;20.40;99.90;;;;;;5014113;28;20053;-59
2022/07/13 07:47:33;;;;;;;1.87;1.77;;;20.50;99.90;;;;;;5013804;28;19927;-59
2022/07/13 07:50:00;;;;;;;2.05;1.35;;;20.70;99.90;;;;;;5010407;28;20048;-59
2022/07/13 07:52:28;;;;;;;3.28;1.58;;;20.70;99.90;;;;;;5012902;28;20046;-59
2022/07/13 07:55:15;;;;;;;1.60;1.50;;;20.80;99.90;;;;;;4999306;28;20046;-60
2022/07/13 07:57:52;;;;;;;2.90;2.17;;;20.90;99.90;;;;;;5006895;28;20038;-59
2022/07/13 08:00:19;;;;;;;5.05;1.92;;;21.10;99.90;;;;;;4993291;28;20050;-59
2022/07/13 08:02:47;;;;;;;4.28;1.95;;;21.30;99.90;;;;;;5002519;28;20101;-58
2022/07/13 08:05:14;;;;;;;1.42;1.33;;;21.50;99.90;;;;;;5004560;28;20069;-59
2022/07/13 08:07:43;;;;;;;4.20;1.83;;;21.70;99.90;;;;;;5003109;28;20045;-59
2022/07/13 08:10:14;;;;;;;1.50;1.30;;;21.70;99.90;;;;;;5001444;28;20046;-60
2022/07/13 08:13:00;;;;;;;2.08;1.80;;;21.50;99.90;;;;;;5004073;28;20038;-60
2022/07/13 08:15:27;;;;;;;2.33;1.50;;;21.60;99.90;;;;;;4997950;28;20081;-60
2022/07/13 08:17:55;;;;;;;2.63;1.60;;;21.70;99.90;;;;;;4995804;28;20042;-60
2022/07/13 08:20:22;;;;;;;6.38;1.80;;;21.70;99.90;;;;;;4998679;28;20042;-60
2022/07/13 08:22:49;;;;;;;;;;;21.90;99.90;;;;;;5000350;28;20034;-60
2022/07/13 08:25:17;;;;;;;3.45;1.52;;;22.00;99.90;;;;;;5006711;28;19947;-60
2022/07/13 08:27:44;;;;;;;2.30;1.95;;;22.20;99.90;;;;;;5011123;28;20491;-60
2022/07/13 08:30:11;;;;;;;1.45;1.35;;;22.40;99.90;;;;;;5008833;28;20218;-60
2022/07/13 08:32:39;;;;;;;3.25;1.77;;;22.50;99.90;;;;;;5005946;28;20038;-60
2022/07/13 08:40:40;;;;;;;2.13;1.65;;;22.40;99.90;;;;;;5008156;28;20038;-60
2022/07/13 08:43:08;;;;;;;4.70;1.40;;;22.60;99.90;;;;;;5008414;28;20041;-60
2022/07/13 08:45:35;;;;;;;;;;;22.80;99.90;;;;;;5009439;28;20034;-60
2022/07/13 08:48:16;;;;;;;4.30;1.50;;;23.00;99.90;;;;;;5007858;28;19925;-60
2022/07/13 08:50:43;;;;;;;1.52;1.30;;;23.00;99.90;;;;;;5002486;28;20108;-60
2022/07/13 08:53:11;;;;;;;5.72;1.63;;;23.10;99.90;;;;;;5004261;28;20048;-60
2022/07/13 08:55:38;;;;;;;2.08;1.52;;;23.30;99.90;;;;;;5007082;28;20398;-60
2022/07/13 08:58:06;;;;;;;3.00;1.60;;;23.30;99.90;;;;;;5006285;28;20058;-60
2022/07/13 09:00:33;;;;;;;1.63;1.30;;;23.40;99.90;;;;;;5006463;28;20111;-60
2022/07/13 09:03:00;;;;;;;4.40;1.27;;;23.40;99.90;;;;;;5004218;28;20053;-60
2022/07/13 09:05:31;;;;;;;2.53;1.73;;;23.50;99.90;;;;;;5006679;28;20042;-60
2022/07/13 09:08:07;;;;;;;3.50;1.45;;;23.60;99.90;;;;;;5004675;28;20514;-60
2022/07/13 09:10:53;;;;;;;3.15;1.60;;;23.70;99.90;;;;;;4999394;28;20038;-60
2022/07/13 09:13:41;;;;;;;2.33;1.40;;;23.80;99.90;;;;;;5003837;28;20068;-60
2022/07/13 09:16:19;;;;;;;2.03;1.40;;;23.80;99.90;;;;;;5002961;28;20125;-60
2022/07/13 09:18:49;;;;;;;2.42;1.45;;;24.00;99.90;;;;;;5006145;28;20064;-60
2022/07/13 09:21:18;;;;;;;4.20;1.80;;;24.10;99.90;;;;;;5010516;28;20046;-61
2022/07/13 09:23:48;;;;;;;1.85;1.42;;;24.20;99.90;;;;;;5008436;28;20073;-60
2022/07/13 09:26:16;;;;;;;1.70;1.42;;;24.40;99.90;;;;;;5003117;28;20050;-60
2022/07/13 09:28:45;;;;;;;1.83;1.35;;;24.40;99.90;;;;;;5000942;28;20068;-60
2022/07/13 09:31:13;;;;;;;3.83;1.52;;;24.40;99.90;;;;;;5003090;28;20380;-60
2022/07/13 09:33:43;;;;;;;2.85;1.88;;;24.30;99.90;;;;;;5007462;28;20061;-60
2022/07/13 09:36:20;;;;;;;1.25;1.10;;;24.30;99.90;;;;;;5006838;28;20054;-60
2022/07/13 09:38:51;;;;;;;1.60;1.50;;;24.30;99.90;;;;;;5006192;28;20449;-60
2022/07/13 09:41:25;;;;;;;1.67;1.40;;;24.20;99.90;;;;;;5006909;28;20092;-60
2022/07/13 09:47:02;;;;;;;1.27;1.17;;;24.50;99.90;;;;;;5005463;28;20044;-60
2022/07/13 09:49:41;;;;;;;1.52;1.42;;;24.60;99.90;;;;;;5005405;28;20049;-60
2022/07/13 09:52:13;;;;;;;1.58;1.10;;;24.60;99.90;;;;;;5006046;28;20042;-61
2022/07/13 09:54:42;;;;;;;2.95;1.30;;;24.60;99.90;;;;;;5002827;28;20046;-61
2022/07/13 09:57:12;;;;;;;4.70;1.20;;;24.50;99.90;;;;;;5003693;28;20535;-60
2022/07/13 09:59:41;;;;;;;2.25;1.10;;;24.50;99.90;;;;;;5007623;28;20049;-61
2022/07/13 10:02:08;;;;;;;1.10;1.00;;;24.70;99.70;;;;;;5006942;28;20530;-60
2022/07/13 10:04:36;;;;;;;1.50;1.20;;;24.80;99.60;;;;;;5007721;28;20562;-61
2022/07/13 10:07:18;;;;;;;1.30;1.20;;;25.00;99.90;;;;;;5005147;28;20078;-61
2022/07/13 10:09:45;;;;;;;5.93;3.20;;;25.10;99.90;;;;;;5007181;28;20045;-61
2022/07/13 10:12:12;;;;;;;1.85;1.20;;;25.20;99.90;;;;;;5004051;28;20053;-60
2022/07/13 10:14:40;;;;;;;1.40;0.98;;;25.30;99.90;;;;;;5010941;28;20080;-60
2022/07/13 10:17:10;;;;;;;2.35;1.10;;;25.20;99.90;;;;;;5042437;22;20525;-65
2022/07/13 10:19:57;;;;;;;1.38;1.27;;;25.20;99.30;;;;;;5049528;28;20060;-66
2022/07/13 10:22:27;;;;;;;1.60;1.13;;;25.40;99.60;;;;;;5038102;28;20042;-66
2022/07/13 10:24:55;;;;;;;1.92;1.35;;;25.20;97.50;;;;;;5047319;28;20497;-66
2022/07/13 10:27:28;;;;;;;2.50;1.13;;;25.30;99.90;;;;;;5044222;28;20041;-65
2022/07/13 10:30:02;;;;;;;1.30;1.20;;;25.50;98.00;;;;;;5048194;28;20068;-66
2022/07/13 10:32:34;;;;;;;2.25;1.10;;;25.50;98.80;;;;;;5048837;28;20053;-66
2022/07/13 10:35:05;;;;;;;1.40;1.30;;;25.70;99.30;;;;;;5041220;28;20457;-66
2022/07/13 10:37:56;;;;;;;1.10;1.00;;;26.00;98.50;;;;;;5048914;28;20056;-66
2022/07/13 10:40:36;;;;;;;3.28;1.10;;;26.20;97.90;;;;;;5050248;28;20076;-66
2022/07/13 10:43:05;;;;;;;0.80;0.80;;;26.40;95.00;;;;;;5050654;28;20469;-66
2022/07/13 10:45:38;;;;;;;1.70;0.90;;;26.60;94.20;;;;;;5050690;28;20072;-66
2022/07/13 10:48:24;;;;;;;0.95;0.80;;;26.80;96.80;;;;;;5050760;28;20433;-66
2022/07/13 10:50:57;;;;;;;1.20;1.10;;;26.40;95.90;;;;;;5044971;28;20230;-66
2022/07/13 10:53:39;;;;;;;2.58;0.90;;;26.60;96.60;;;;;;5050527;28;20409;-66
2022/07/13 10:56:26;;;;;;;1.02;0.90;;;26.70;96.60;;;;;;5053886;28;20049;-66
2022/07/13 10:59:02;;;;;;;2.25;1.73;;;27.00;97.00;;;;;;5047133;28;20048;-66
2022/07/13 11:01:43;;;;;;;1.50;1.00;;;27.00;96.30;;;;;;5053500;28;20041;-66
2022/07/13 11:04:15;;;;;;;1.75;1.30;;;27.20;96.00;;;;;;5053997;28;20040;-66
2022/07/13 11:06:42;;;;;;;2.97;1.20;;;27.50;97.20;;;;;;5054067;28;20052;-66
2022/07/13 11:09:14;;;;;;;0.90;0.90;;;27.80;95.20;;;;;;5045290;28;20073;-66
2022/07/13 11:11:45;;;;;;;2.92;1.20;;;28.20;93.30;;;;;;5053947;28;20045;-66
2022/07/13 11:14:41;;;;;;;1.15;0.88;;;28.20;92.00;;;;;;5053851;28;20053;-66
2022/07/13 11:17:12;;;;;;;4.82;1.35;;;28.30;93.60;;;;;;5052731;28;20045;-66
2022/07/13 11:20:00;;;;;;;0.90;0.90;;;28.50;91.80;;;;;;5053840;28;20053;-66
2022/07/13 11:25:13;;;;;;;0.80;0.80;;;28.70;90.80;;;;;;5053612;28;20052;-66
2022/07/13 11:25:39;;;;;;;0.93;0.90;;;28.70;91.80;;;;;;5045172;28;20045;-66
2022/07/13 11:28:28;;;;;;;0.80;0.80;;;28.80;92.50;;;;;;5046109;28;20044;-66
2022/07/13 11:30:55;;;;;;;1.45;1.17;;;28.80;92.20;;;;;;5053209;28;20045;-67
2022/07/13 11:33:23;;;;;;;1.98;0.88;;;28.70;92.70;;;;;;5051776;28;20428;-66
2022/07/13 11:35:50;;;;;;;0.80;0.80;;;28.30;84.90;;;;;;5053549;28;20048;-66
2022/07/13 11:38:19;;;;;;;2.03;1.00;;;28.30;90.50;;;;;;5053397;28;20053;-66
2022/07/13 11:40:47;;;;;;;2.15;0.90;;;28.50;90.10;;;;;;5049327;28;20128;-66
2022/07/13 11:43:14;;;;;;;0.98;0.70;;;28.60;90.20;;;;;;5053100;28;20040;-66
2022/07/13 11:45:59;;;;;;;1.48;0.85;;;28.60;89.30;;;;;;5053490;28;20047;-66
2022/07/13 11:48:30;;;;;;;;;;;28.90;90.60;;;;;;5048580;28;20041;-66
2022/07/13 11:50:57;;;;;;;2.40;0.80;;;29.00;85.50;;;;;;5052762;28;20388;-66
2022/07/13 11:53:29;;;;;;;0.80;0.80;;;28.90;86.90;;;;;;5053032;28;20044;-66
2022/07/13 11:56:02;;;;;;;3.10;0.80;;;28.80;89.00;;;;;;5053320;28;20497;-67
2022/07/13 11:58:32;;;;;;;1.05;0.95;;;28.90;86.70;;;;;;5050138;28;20382;-66
2022/07/13 12:01:00;;;;;;;0.70;0.70;;;28.90;88.70;;;;;;5052638;28;20051;-66
2022/07/13 12:03:32;;;;;;;0.70;0.70;;;28.70;85.50;;;;;;5052848;28;20063;-67
2022/07/13 12:06:02;;;;;;;1.40;0.70;;;28.60;84.10;;;;;;5050432;28;20466;-67
2022/07/13 12:08:33;;;;;;;0.75;0.60;;;28.70;80.80;;;;;;5048064;28;20047;-67
2022/07/13 12:11:02;;;;;;;0.80;0.75;;;28.90;78.00;;;;;;5052377;28;20047;-66
2022/07/13 12:13:33;;;;;;;1.48;0.95;;;29.10;79.10;;;;;;5052751;28;20095;-66
2022/07/13 12:16:00;;;;;;;0.95;0.77;;;29.40;75.80;;;;;;5046201;28;20135;-66
2022/07/13 12:18:27;;;;;;;0.80;0.80;;;29.40;76.60;;;;;;5052357;28;20083;-67
2022/07/13 12:20:54;;;;;;;1.27;0.60;;;29.40;81.70;;;;;;5052238;28;20049;-66
2022/07/13 12:23:21;;;;;;;0.77;0.70;;;29.50;75.20;;;;;;5047601;28;20112;-67
2022/07/13 12:25:48;;;;;;;;;;;29.70;73.20;;;;;;5050291;28;20053;-67
2022/07/13 12:28:15;;;;;;;0.70;0.70;;;29.90;73.80;;;;;;5052537;28;20321;-66
2022/07/13 12:30:55;;;;;;;;;;;29.60;68.40;;;;;;5052595;28;20037;-66
2022/07/13 12:33:23;;;;;;;0.80;0.57;;;29.50;76.60;;;;;;5049163;28;19921;-67
2022/07/13 12:36:03;;;;;;;0.80;0.80;;;29.40;77.80;;;;;;5052109;28;20048;-66
2022/07/13 12:38:31;;;;;;;4.00;0.80;;;29.50;78.70;;;;;;5052361;28;20041;-66
2022/07/13 12:41:01;;;;;;;0.80;0.80;;;29.70;79.70;;;;;;5046159;28;20052;-67
2022/07/13 12:43:30;;;;;;;4.32;1.02;;;29.60;78.90;;;;;;5051913;28;20049;-66
2022/07/13 12:46:00;;;;;;;0.80;0.80;;;29.40;80.00;;;;;;5052237;28;20041;-66
2022/07/13 12:48:29;;;;;;;4.22;1.00;;;29.30;80.10;;;;;;5052289;28;20045;-67
2022/07/13 12:50:59;;;;;;;1.02;0.80;;;29.30;81.30;;;;;;5046508;28;20044;-66
2022/07/13 12:53:45;;;;;;;0.70;0.70;;;29.40;81.70;;;;;;5052015;28;20048;-66
2022/07/13 12:56:13;;;;;;;2.92;0.80;;;29.80;77.40;;;;;;5052066;28;20045;-67
2022/07/13 12:58:47;;;;;;;3.00;0.75;;;29.70;80.30;;;;;;5046999;28;20053;-66
2022/07/13 13:01:49;;;;;;;0.98;0.85;;;29.90;78.30;;;;;;5051271;28;20051;-66
2022/07/13 13:04:17;;;;;;;1.63;1.02;;;30.20;72.00;;;;;;4951581;29;20051;-67
2022/07/13 13:06:47;;;;;;;0.70;0.70;;;30.10;76.00;;;;;;5032827;28;20064;-66
2022/07/13 13:09:15;;;;;;;6.00;1.65;;;29.90;77.00;;;;;;5042976;28;20045;-66
2022/07/13 13:11:47;;;;;;;2.08;1.08;;;29.80;77.70;;;;;;5050996;28;20040;-66